Time;durP1;ratioP1;P1;durP2;ratioP2;P2;SDS_P1;SDS_P2;PMS_P1;PMS_P2;Temp;Humidity;BMP_temperature;BMP_pressure;BME280_temperature;BME280_humidity;BME280_pressure;Samples;Min_cycle;Max_cycle;Signal;HPM_P1;HPM_P2
2022/07/16 00:03:09;;;;;;;0.30;0.30;;;;;;;13.75;64.69;99989.13;5148633;27;20060;-70
2022/07/16 00:05:34;;;;;;;0.20;0.20;;;;;;;13.75;64.76;99991.75;5148750;27;20023;-71
2022/07/16 00:08:00;;;;;;;0.20;0.20;;;;;;;13.70;64.73;99971.00;5149554;27;20084;-72
2022/07/16 00:10:26;;;;;;;0.30;0.30;;;;;;;13.79;64.82;99987.28;5149226;27;20015;-71
2022/07/16 00:12:51;;;;;;;0.30;0.30;;;;;;;13.80;64.83;99978.56;5148690;27;20023;-72
2022/07/16 00:15:17;;;;;;;0.20;0.20;;;;;;;13.83;64.89;99978.47;5148823;27;20027;-71
2022/07/16 00:17:42;;;;;;;0.20;0.20;;;;;;;13.77;65.41;99979.50;5148892;27;20027;-71
2022/07/16 00:20:08;;;;;;;0.30;0.30;;;;;;;13.82;65.28;99982.81;5148469;27;20015;-72
2022/07/16 00:22:34;;;;;;;0.30;0.30;;;;;;;13.81;65.70;99972.44;5148415;27;20023;-72
2022/07/16 00:24:59;;;;;;;0.30;0.30;;;;;;;13.82;65.72;99982.81;5148932;27;20027;-72
2022/07/16 00:27:25;;;;;;;0.30;0.30;;;;;;;13.85;65.67;99974.06;5148116;27;20043;-72
2022/07/16 00:29:50;;;;;;;0.30;0.30;;;;;;;13.94;65.61;99980.75;5148329;27;20095;-72
2022/07/16 00:32:16;;;;;;;0.20;0.20;;;;;;;13.96;65.50;99966.75;5148109;27;20031;-72
2022/07/16 00:34:41;;;;;;;0.20;0.20;;;;;;;14.02;65.27;99978.78;5147849;27;20027;-71
2022/07/16 00:37:07;;;;;;;0.28;0.28;;;;;;;14.04;65.30;99968.31;5148007;27;20023;-70
2022/07/16 00:39:32;;;;;;;0.55;0.55;;;;;;;14.10;65.34;99968.97;5148194;27;20023;-70
2022/07/16 00:41:58;;;;;;;0.30;0.30;;;;;;;14.17;65.02;99966.19;5148294;27;20167;-72
2022/07/16 00:44:23;;;;;;;0.30;0.30;;;;;;;14.17;65.35;99958.34;5148273;27;20058;-70
2022/07/16 00:46:49;;;;;;;0.30;0.30;;;;;;;14.21;65.10;99958.22;5147745;27;20042;-65
2022/07/16 00:49:15;;;;;;;1.00;1.00;;;;;;;14.23;65.06;99961.59;5147664;27;20027;-65
2022/07/16 00:51:46;;;;;;;0.30;0.30;;;;;;;14.22;65.43;99959.03;5147850;27;20510;-64
2022/07/16 00:54:13;;;;;;;0.28;0.28;;;;;;;14.18;65.31;99945.25;5147791;27;20049;-65
2022/07/16 00:56:38;;;;;;;0.20;0.20;;;;;;;14.26;65.09;99955.44;5147316;27;20026;-65
2022/07/16 00:59:04;;;;;;;1.05;1.05;;;;;;;14.22;65.64;99952.06;5147640;27;20019;-65
2022/07/16 01:01:30;;;;;;;0.30;0.30;;;;;;;14.19;65.97;99944.34;5147389;27;20033;-66
2022/07/16 01:03:55;;;;;;;0.30;0.30;;;;;;;14.20;65.75;99938.19;5147331;27;20023;-65
2022/07/16 01:06:22;;;;;;;0.30;0.30;;;;;;;14.19;66.17;99948.69;5147433;27;20029;-66
2022/07/16 01:08:49;;;;;;;0.30;0.30;;;;;;;14.24;65.78;99947.66;5146682;27;20056;-65
2022/07/16 01:11:17;;;;;;;0.20;0.20;;;;;;;14.28;65.69;99942.34;5147265;27;20027;-65
2022/07/16 01:13:45;;;;;;;0.30;0.30;;;;;;;14.23;65.79;99934.66;5147207;27;20034;-65
2022/07/16 01:16:12;;;;;;;0.30;0.30;;;;;;;14.30;65.51;99936.16;5147055;27;20023;-64
2022/07/16 01:18:40;;;;;;;0.30;0.30;;;;;;;14.27;65.48;99943.22;5147247;27;20505;-68
2022/07/16 01:21:05;;;;;;;0.30;0.30;;;;;;;14.21;65.72;99928.63;5147418;27;20030;-68
2022/07/16 01:23:31;;;;;;;0.30;0.30;;;;;;;14.17;65.70;99933.06;5147225;27;20023;-68
2022/07/16 01:25:57;;;;;;;0.30;0.30;;;;;;;14.13;65.44;99928.88;5147242;27;20493;-68
2022/07/16 01:28:23;;;;;;;0.25;0.25;;;;;;;14.13;65.12;99928.88;5145556;27;20078;-69
2022/07/16 01:30:49;;;;;;;0.30;0.30;;;;;;;14.04;64.86;99922.16;5147317;27;20027;-69
2022/07/16 01:33:24;;;;;;;0.22;0.22;;;;;;;14.05;64.48;99925.63;5146823;27;20020;-68
2022/07/16 01:35:53;;;;;;;0.30;0.30;;;;;;;14.01;64.18;99930.09;5147155;27;20019;-69
2022/07/16 01:38:19;;;;;;;0.30;0.30;;;;;;;13.90;63.96;99925.19;5146949;27;20043;-69
2022/07/16 01:40:44;;;;;;;0.30;0.30;;;;;;;13.90;63.66;99929.59;5147026;27;20037;-68
2022/07/16 01:43:18;;;;;;;0.30;0.30;;;;;;;13.90;63.29;99937.41;5146982;27;20015;-68
2022/07/16 01:45:44;;;;;;;0.20;0.20;;;;;;;13.81;63.18;99931.56;5146656;27;20088;-68
2022/07/16 01:48:12;;;;;;;0.20;0.20;;;;;;;13.75;63.06;99934.34;5146534;27;20027;-68
2022/07/16 01:50:39;;;;;;;0.25;0.25;;;;;;;13.77;62.73;99931.69;5146791;27;20034;-68
2022/07/16 01:53:06;;;;;;;0.30;0.30;;;;;;;13.71;62.81;99927.50;5146796;27;20038;-68
2022/07/16 01:55:33;;;;;;;0.25;0.25;;;;;;;13.67;62.90;99925.88;5146665;27;20102;-68
2022/07/16 01:57:59;;;;;;;0.30;0.30;;;;;;;13.63;62.58;99930.31;5146653;27;20081;-68
2022/07/16 02:00:25;;;;;;;0.30;0.30;;;;;;;13.60;62.55;99926.06;5146441;27;20079;-67
2022/07/16 02:02:50;;;;;;;0.30;0.30;;;;;;;13.58;62.70;99924.38;5146502;27;20423;-68
2022/07/16 02:05:15;;;;;;;0.20;0.20;;;;;;;13.57;62.68;99927.91;5127534;27;20027;-68
2022/07/16 02:07:41;;;;;;;0.30;0.30;;;;;;;13.50;62.71;99929.78;5146534;27;20023;-68
2022/07/16 02:10:06;;;;;;;0.20;0.20;;;;;;;13.44;62.65;99920.41;5146382;27;20041;-68
2022/07/16 02:12:32;;;;;;;0.30;0.30;;;;;;;13.41;62.55;99917.88;5146264;27;20027;-68
2022/07/16 02:14:57;;;;;;;0.30;0.30;;;;;;;13.35;62.82;99924.13;5146135;27;20440;-68
2022/07/16 02:17:24;;;;;;;0.30;0.30;;;;;;;13.33;62.48;99925.91;5146222;27;20015;-70
2022/07/16 02:19:49;;;;;;;0.30;0.30;;;;;;;13.31;62.49;99921.63;5145505;27;20030;-68
2022/07/16 02:22:15;;;;;;;0.20;0.20;;;;;;;13.29;62.45;99926.88;5145699;27;20026;-67
2022/07/16 02:24:41;;;;;;;0.30;0.30;;;;;;;13.29;62.65;99929.47;5146314;27;20053;-69
2022/07/16 02:27:06;;;;;;;0.30;0.30;;;;;;;13.32;62.75;99932.00;5145645;27;20526;-68
2022/07/16 02:29:31;;;;;;;0.20;0.20;;;;;;;13.30;62.51;99928.59;5145784;27;20034;-68
2022/07/16 02:31:57;;;;;;;0.30;0.30;;;;;;;13.29;62.52;99929.47;5146034;27;20110;-68
2022/07/16 02:34:22;;;;;;;0.30;0.30;;;;;;;13.30;62.72;99927.75;5145546;27;20019;-68
2022/07/16 02:36:47;;;;;;;0.20;0.20;;;;;;;13.26;62.55;99935.66;5145798;27;20023;-68
2022/07/16 02:39:13;;;;;;;0.30;0.30;;;;;;;13.21;62.36;99928.88;5145836;27;20031;-68
2022/07/16 02:41:38;;;;;;;0.30;0.30;;;;;;;13.21;62.43;99931.47;5145851;27;20023;-69
2022/07/16 02:44:04;;;;;;;0.40;0.40;;;;;;;13.19;62.58;99930.66;5145735;27;20087;-68
2022/07/16 02:46:29;;;;;;;0.30;0.30;;;;;;;13.14;62.56;99926.44;5145590;27;20031;-70
2022/07/16 02:48:55;;;;;;;0.20;0.20;;;;;;;13.09;62.69;99935.25;5145342;27;20034;-68
2022/07/16 02:51:20;;;;;;;0.22;0.22;;;;;;;13.05;62.50;99937.06;5145652;27;20023;-69
2022/07/16 02:53:46;;;;;;;0.30;0.30;;;;;;;13.08;62.88;99929.16;5145586;27;20026;-69
2022/07/16 02:56:12;;;;;;;0.20;0.20;;;;;;;13.02;62.75;99931.94;5145405;27;20049;-68
2022/07/16 02:58:37;;;;;;;0.30;0.30;;;;;;;13.01;63.08;99935.44;5145671;27;20045;-69
2022/07/16 03:01:03;;;;;;;0.30;0.30;;;;;;;13.02;62.87;99931.94;5145446;27;20019;-68
2022/07/16 03:03:28;;;;;;;0.30;0.30;;;;;;;12.99;63.34;99932.03;5143872;27;20102;-69
2022/07/16 03:05:53;;;;;;;0.30;0.30;;;;;;;12.94;63.43;99926.94;5145443;27;20072;-68
2022/07/16 03:08:19;;;;;;;0.30;0.30;;;;;;;12.98;63.49;99932.94;5145379;27;20412;-69
2022/07/16 03:10:45;;;;;;;0.30;0.30;;;;;;;12.96;63.55;99921.69;5145126;27;20022;-68
2022/07/16 03:13:10;;;;;;;0.30;0.30;;;;;;;13.01;63.74;99928.50;5145253;27;20087;-68
2022/07/16 03:15:35;;;;;;;0.30;0.30;;;;;;;13.02;63.81;99931.94;5145091;27;20030;-68
2022/07/16 03:18:01;;;;;;;0.30;0.30;;;;;;;13.04;64.06;99927.56;5145060;27;20079;-68
2022/07/16 03:20:26;;;;;;;0.65;0.65;;;;;;;13.12;63.38;99932.56;5144934;27;20023;-68
2022/07/16 03:22:52;;;;;;;0.30;0.30;;;;;;;13.12;63.34;99930.81;5145088;27;20126;-68
2022/07/16 03:25:17;;;;;;;0.30;0.30;;;;;;;13.10;63.34;99932.59;5145031;27;20019;-68
2022/07/16 03:27:43;;;;;;;0.30;0.30;;;;;;;13.11;63.35;99930.84;5144583;27;20043;-68
2022/07/16 03:30:10;;;;;;;0.30;0.30;;;;;;;13.05;63.88;99939.69;5144867;27;20034;-68
2022/07/16 03:32:36;;;;;;;0.30;0.30;;;;;;;13.07;63.91;99935.28;5144597;27;20031;-68
2022/07/16 03:35:06;;;;;;;0.30;0.30;;;;;;;13.06;64.01;99936.19;5144599;27;20459;-68
2022/07/16 03:37:32;;;;;;;0.30;0.30;;;;;;;13.06;64.06;99940.53;5144836;27;20023;-67
2022/07/16 03:39:57;;;;;;;1.08;0.73;;;;;;;13.05;64.47;99944.88;5144789;27;20366;-68
2022/07/16 03:42:23;;;;;;;0.30;0.30;;;;;;;13.09;64.50;99945.66;5144968;27;20025;-68
2022/07/16 03:44:48;;;;;;;0.30;0.30;;;;;;;13.16;64.31;99946.38;5144876;27;20027;-68
2022/07/16 03:47:14;;;;;;;0.40;0.40;;;;;;;13.18;64.26;99947.19;5144583;27;20067;-68
2022/07/16 03:49:39;;;;;;;0.30;0.30;;;;;;;13.21;64.74;99944.50;5144333;27;20137;-68
2022/07/16 03:52:04;;;;;;;0.30;0.30;;;;;;;13.42;65.79;99943.03;5144482;28;20019;-68
2022/07/16 03:54:30;;;;;;;0.30;0.30;;;;;;;13.99;66.23;99943.19;5144557;28;20137;-68
2022/07/16 03:56:55;;;;;;;0.25;0.25;;;;;;;14.91;66.19;99951.66;5144315;28;20087;-68
2022/07/16 03:59:20;;;;;;;0.30;0.30;;;;;;;15.81;64.61;99953.75;5144397;28;20015;-68
2022/07/16 04:01:46;;;;;;;0.20;0.20;;;;;;;16.72;63.87;99950.22;5144301;28;20055;-68
2022/07/16 04:04:11;;;;;;;0.20;0.20;;;;;;;17.48;63.14;99953.19;5142935;28;20023;-69
2022/07/16 04:06:36;;;;;;;0.20;0.20;;;;;;;17.90;62.37;99953.91;5144416;28;20048;-69
2022/07/16 04:09:02;;;;;;;0.20;0.20;;;;;;;17.86;61.58;99936.63;5144663;28;20034;-70
2022/07/16 04:11:27;;;;;;;0.20;0.20;;;;;;;17.62;60.15;99952.56;5144490;28;20027;-70
2022/07/16 04:13:53;;;;;;;0.30;0.30;;;;;;;17.18;59.11;99954.47;5144487;28;20040;-68
2022/07/16 04:16:18;;;;;;;0.20;0.20;;;;;;;16.87;59.29;99953.97;5144282;28;20050;-69
2022/07/16 04:18:43;;;;;;;0.20;0.20;;;;;;;16.50;58.92;99966.84;5144244;28;20390;-69
2022/07/16 04:21:09;;;;;;;0.20;0.20;;;;;;;16.17;58.87;99965.50;5144476;28;20019;-68
2022/07/16 04:23:34;;;;;;;0.28;0.28;;;;;;;15.89;59.30;99971.75;5144359;28;20080;-70
2022/07/16 04:26:00;;;;;;;0.38;0.38;;;;;;;15.61;59.59;99967.53;5144295;28;20027;-70
2022/07/16 04:28:25;;;;;;;0.20;0.20;;;;;;;15.45;59.73;99968.09;5144245;28;20040;-70
2022/07/16 04:30:51;;;;;;;0.20;0.20;;;;;;;15.32;59.87;99967.69;5144047;28;20028;-69
2022/07/16 04:33:16;;;;;;;0.22;0.22;;;;;;;15.21;60.15;99973.28;5144145;28;20027;-69
2022/07/16 04:35:42;;;;;;;0.20;0.20;;;;;;;15.21;59.63;99996.81;5144183;28;20015;-69
2022/07/16 04:38:07;;;;;;;0.20;0.20;;;;;;;15.10;59.80;100019.88;5144130;28;20147;-69
2022/07/16 04:40:33;;;;;;;0.20;0.20;;;;;;;14.93;59.76;100038.72;5125618;28;20091;-70
2022/07/16 04:42:58;;;;;;;0.30;0.30;;;;;;;14.65;59.08;100052.66;5144163;27;20038;-68
2022/07/16 04:45:23;;;;;;;0.20;0.20;;;;;;;13.98;59.32;100071.97;5147448;27;20027;-66
2022/07/16 04:47:49;;;;;;;0.30;0.30;;;;;;;12.76;61.36;100069.75;5148118;27;20034;-68
2022/07/16 04:50:14;;;;;;;0.20;0.20;;;;;;;11.75;63.58;100067.50;5147723;27;20028;-67
2022/07/16 04:52:40;;;;;;;0.30;0.30;;;;;;;11.09;65.70;100054.75;5148014;27;20375;-67
2022/07/16 04:55:06;;;;;;;0.30;0.30;;;;;;;10.86;67.28;100050.78;5148011;27;20034;-67
2022/07/16 04:57:31;;;;;;;0.30;0.30;;;;;;;10.71;68.88;100058.81;5147830;27;20062;-67
2022/07/16 04:59:57;;;;;;;0.30;0.30;;;;;;;10.68;70.38;100045.88;5147785;27;20011;-68
2022/07/16 05:05:07;;;;;;;0.30;0.30;;;;;;;10.57;72.90;100018.34;5147963;27;20117;-68
2022/07/16 05:07:32;;;;;;;0.30;0.30;;;;;;;10.43;73.86;100018.50;5147807;27;20109;-68
2022/07/16 05:09:58;;;;;;;0.30;0.30;;;;;;;10.29;74.98;100018.69;5147820;27;20407;-67
2022/07/16 05:12:24;;;;;;;0.30;0.30;;;;;;;10.23;75.97;100021.34;5147704;27;20501;-67
2022/07/16 05:14:49;;;;;;;0.30;0.30;;;;;;;10.24;76.99;100023.09;5147957;27;20015;-67
2022/07/16 05:17:15;;;;;;;0.30;0.30;;;;;;;10.35;77.61;100026.38;5147406;27;20059;-67
2022/07/16 05:19:40;;;;;;;0.30;0.30;;;;;;;10.56;78.45;100023.56;5147359;27;20020;-67
2022/07/16 05:22:06;;;;;;;0.30;0.30;;;;;;;10.69;79.06;100024.22;5147703;27;20029;-67
2022/07/16 05:24:32;;;;;;;0.30;0.30;;;;;;;10.89;79.62;100024.75;5147585;27;20034;-67
2022/07/16 05:26:58;;;;;;;0.30;0.30;;;;;;;11.13;80.10;100027.81;5147078;27;20028;-67
2022/07/16 05:29:24;;;;;;;0.30;0.30;;;;;;;11.33;80.80;100021.44;5147346;27;20490;-66
2022/07/16 05:31:50;;;;;;;0.30;0.30;;;;;;;11.57;81.07;100032.28;5147246;27;20030;-66
2022/07/16 05:34:15;;;;;;;0.30;0.30;;;;;;;11.73;81.59;100034.59;5147020;27;20450;-66
2022/07/16 05:36:40;;;;;;;0.30;0.30;;;;;;;11.87;81.75;100045.56;5146981;27;20015;-66
2022/07/16 05:39:06;;;;;;;0.30;0.30;;;;;;;12.10;82.42;100049.50;5147160;27;20027;-66
2022/07/16 05:41:31;;;;;;;0.30;0.30;;;;;;;12.46;83.50;100058.31;5147253;27;20024;-65
2022/07/16 05:43:59;;;;;;;0.30;0.30;;;;;;;12.95;84.79;100050.25;5146875;27;20015;-66
2022/07/16 05:46:24;;;;;;;0.30;0.30;;;;;;;13.94;87.82;100054.69;5146784;27;20075;-67
2022/07/16 05:48:50;;;;;;;0.20;0.20;;;;;;;14.93;89.18;100055.28;5146756;27;20488;-67
2022/07/16 05:51:15;;;;;;;0.20;0.20;;;;;;;15.43;88.51;100058.84;5146729;27;20027;-66
2022/07/16 05:53:40;;;;;;;0.20;0.20;;;;;;;16.22;90.61;100059.59;5146640;27;20031;-64
2022/07/16 05:56:06;;;;;;;0.20;0.20;;;;;;;17.32;92.20;100061.41;5146226;27;20030;-66
2022/07/16 05:58:31;;;;;;;0.20;0.20;;;;;;;18.37;92.31;100064.78;5146593;27;20030;-63
2022/07/16 06:00:57;;;;;;;0.20;0.20;;;;;;;19.11;91.34;100065.63;5146470;27;20012;-63
2022/07/16 06:03:22;;;;;;;0.20;0.20;;;;;;;19.74;91.48;100071.25;5145260;27;20031;-64
2022/07/16 06:05:47;;;;;;;0.20;0.20;;;;;;;20.46;91.51;100069.25;5146303;27;20027;-67
2022/07/16 06:08:13;;;;;;;0.20;0.20;;;;;;;21.29;89.88;100076.88;5146329;27;20033;-66
2022/07/16 06:10:38;;;;;;;0.20;0.20;;;;;;;21.77;86.76;100075.00;5145125;27;20022;-65
2022/07/16 06:13:04;;;;;;;0.20;0.20;;;;;;;22.13;85.79;100086.03;5146314;27;20041;-63
2022/07/16 06:15:29;;;;;;;0.20;0.20;;;;;;;22.45;84.04;100088.44;5146369;27;20024;-63
2022/07/16 06:17:55;;;;;;;0.20;0.20;;;;;;;22.85;84.18;100086.84;5146142;27;20091;-63
2022/07/16 06:20:20;;;;;;;0.10;0.10;;;;;;;23.42;83.45;100084.88;5145902;27;20098;-65
2022/07/16 06:22:46;;;;;;;0.13;0.13;;;;;;;23.79;81.12;100096.56;5146111;27;20510;-64
2022/07/16 06:25:11;;;;;;;0.10;0.10;;;;;;;24.20;82.13;100100.75;5145881;27;20486;-67
2022/07/16 06:27:42;;;;;;;0.10;0.10;;;;;;;24.67;81.68;100108.06;5145615;27;20080;-65
2022/07/16 06:30:08;;;;;;;0.10;0.10;;;;;;;25.17;81.89;100115.09;5145901;27;20022;-66
2022/07/16 06:32:33;;;;;;;0.10;0.10;;;;;;;25.39;78.96;100113.44;5145894;27;20110;-66
2022/07/16 06:34:59;;;;;;;0.10;0.10;;;;;;;25.11;76.25;100123.50;5145736;27;20072;-66
2022/07/16 06:37:24;;;;;;;0.20;0.20;;;;;;;24.50;76.40;100120.75;5145705;27;20053;-66
2022/07/16 06:39:50;;;;;;;0.10;0.10;;;;;;;24.13;77.76;100115.38;5145783;27;20015;-68
2022/07/16 06:42:15;;;;;;;0.10;0.10;;;;;;;24.00;78.79;100126.88;5145612;27;20030;-66
2022/07/16 06:44:41;;;;;;;0.10;0.10;;;;;;;23.80;80.34;100133.56;5145771;27;20096;-66
2022/07/16 06:47:06;;;;;;;0.20;0.20;;;;;;;23.80;81.52;100135.34;5145579;27;20019;-66
2022/07/16 06:49:32;;;;;;;0.10;0.10;;;;;;;23.95;84.00;100131.63;5145209;27;20495;-66
2022/07/16 06:51:57;;;;;;;0.10;0.10;;;;;;;24.13;84.00;100142.75;5145421;27;20088;-66
2022/07/16 06:54:22;;;;;;;0.10;0.10;;;;;;;24.11;84.33;100138.50;5145295;27;20027;-66
2022/07/16 06:56:48;;;;;;;0.10;0.10;;;;;;;24.51;88.61;100143.69;5145177;27;20034;-65
2022/07/16 06:59:13;;;;;;;0.10;0.10;;;;;;;25.19;91.49;100150.31;5145575;27;20016;-66
2022/07/16 07:01:39;;;;;;;0.10;0.10;;;;;;;25.76;90.50;100154.13;5145188;27;20029;-66
2022/07/16 07:04:04;;;;;;;0.10;0.10;;;;;;;25.80;89.13;100158.28;5145152;27;20574;-67
2022/07/16 07:06:30;;;;;;;0.10;0.10;;;;;;;25.78;87.12;100162.84;5144618;27;20022;-68
2022/07/16 07:08:55;;;;;;;0.10;0.10;;;;;;;25.71;88.37;100159.81;5145133;27;20280;-67
2022/07/16 07:11:20;;;;;;;0.10;0.10;;;;;;;25.45;83.96;100176.75;5145108;27;20023;-67
2022/07/16 07:13:45;;;;;;;0.10;0.10;;;;;;;24.71;81.48;100177.69;5145278;27;20023;-67
2022/07/16 07:16:11;;;;;;;0.10;0.10;;;;;;;24.47;79.58;100181.16;5145113;27;20035;-66
2022/07/16 07:18:36;;;;;;;0.10;0.10;;;;;;;24.38;83.27;100185.28;5144799;27;20136;-67
2022/07/16 07:21:02;;;;;;;0.10;0.10;;;;;;;24.76;81.78;100173.75;5145031;27;20015;-67
2022/07/16 07:23:29;;;;;;;0.10;0.10;;;;;;;24.72;77.92;100184.69;5144992;27;20382;-67
2022/07/16 07:25:55;;;;;;;0.20;0.20;;;;;;;24.39;73.50;100181.69;5144819;27;20023;-67
2022/07/16 07:28:20;;;;;;;0.10;0.10;;;;;;;24.11;76.65;100192.41;5144574;27;20072;-67
2022/07/16 07:30:47;;;;;;;0.10;0.10;;;;;;;24.04;78.74;100201.75;5126346;27;20035;-67
2022/07/16 07:33:14;;;;;;;0.10;0.10;;;;;;;23.96;74.43;100196.94;5145017;27;20076;-67
2022/07/16 07:35:40;;;;;;;0.20;0.20;;;;;;;23.73;72.50;100204.69;5144938;27;20027;-67
2022/07/16 07:38:05;;;;;;;0.10;0.10;;;;;;;23.36;71.01;100213.25;5144726;27;20331;-67
2022/07/16 07:40:30;;;;;;;0.20;0.20;;;;;;;23.04;69.83;100208.25;5144714;27;20019;-67
2022/07/16 07:42:56;;;;;;;0.10;0.10;;;;;;;23.00;72.26;100212.03;5144769;27;20045;-67
2022/07/16 07:45:21;;;;;;;0.10;0.10;;;;;;;23.45;77.21;100221.56;5144733;27;20031;-68
2022/07/16 07:47:47;;;;;;;0.65;0.65;;;;;;;23.94;76.22;100212.13;5144570;27;20476;-68
2022/07/16 07:50:13;;;;;;;0.10;0.10;;;;;;;24.10;74.81;100213.72;5144500;27;20087;-67
2022/07/16 07:52:39;;;;;;;0.10;0.10;;;;;;;24.06;69.28;100209.59;5143298;27;20019;-67
2022/07/16 07:55:05;;;;;;;0.10;0.10;;;;;;;23.66;67.97;100213.97;5144358;28;20023;-67
2022/07/16 07:57:30;;;;;;;0.10;0.10;;;;;;;23.42;66.79;100225.25;5144358;28;20038;-67
2022/07/16 07:59:56;;;;;;;0.10;0.10;;;;;;;23.32;68.47;100217.06;5144431;28;20015;-67
2022/07/16 08:02:21;;;;;;;0.25;0.25;;;;;;;23.20;65.36;100223.13;5144456;28;20052;-67
2022/07/16 08:04:46;;;;;;;0.10;0.10;;;;;;;23.20;66.14;100231.06;5144295;28;20427;-68
2022/07/16 08:07:12;;;;;;;0.10;0.10;;;;;;;23.28;62.40;100229.63;5144659;28;20019;-67
2022/07/16 08:09:38;;;;;;;0.10;0.10;;;;;;;23.20;59.74;100228.41;5144043;28;20027;-67
2022/07/16 08:12:03;;;;;;;0.10;0.10;;;;;;;22.65;61.36;100224.75;5144401;28;20031;-67
2022/07/16 08:14:29;;;;;;;0.17;0.17;;;;;;;21.72;58.81;100238.19;5144493;28;20044;-67
2022/07/16 08:16:56;;;;;;;0.22;0.22;;;;;;;21.22;62.46;100230.44;5144419;28;20093;-67
2022/07/16 08:19:21;;;;;;;0.20;0.20;;;;;;;20.89;62.39;100248.03;5145937;27;20091;-67
2022/07/16 08:21:47;;;;;;;0.35;0.35;;;;;;;20.27;62.53;100252.16;5148627;27;20033;-67
2022/07/16 08:26:57;;;;;;;0.20;0.20;;;;;;;21.42;67.68;100264.47;5148556;27;20065;-67
2022/07/16 08:29:22;;;;;;;0.20;0.20;;;;;;;22.20;64.08;100266.28;5148351;27;20058;-68
2022/07/16 08:31:48;;;;;;;0.10;0.10;;;;;;;22.32;59.21;100267.34;5148490;27;20030;-67
2022/07/16 08:34:14;;;;;;;0.20;0.20;;;;;;;22.29;59.27;100276.28;5148413;27;20027;-67
2022/07/16 08:36:40;;;;;;;0.20;0.20;;;;;;;22.46;56.33;100264.69;5148264;27;20030;-67
2022/07/16 08:39:05;;;;;;;0.20;0.20;;;;;;;22.53;58.74;100287.19;5148566;27;20011;-69
2022/07/16 08:41:31;;;;;;;0.20;0.20;;;;;;;22.84;62.38;100287.13;5148324;27;20019;-68
2022/07/16 08:43:58;;;;;;;0.10;0.10;;;;;;;23.31;58.26;100296.59;5148453;27;20039;-69
2022/07/16 08:46:26;;;;;;;1.10;1.10;;;;;;;23.13;59.61;100286.25;5148128;27;20034;-66
2022/07/16 08:48:52;;;;;;;0.20;0.20;;;;;;;23.31;56.41;100289.50;5147921;27;20026;-67
2022/07/16 08:51:21;;;;;;;0.20;0.20;;;;;;;23.18;58.89;100291.25;5148765;27;20518;-66
2022/07/16 08:53:50;;;;;;;0.20;0.20;;;;;;;23.56;58.07;100284.44;5148028;27;20030;-66
2022/07/16 08:56:17;;;;;;;0.10;0.10;;;;;;;23.75;58.36;100290.22;5147924;27;20098;-67
2022/07/16 08:58:43;;;;;;;0.10;0.10;;;;;;;24.10;58.10;100293.25;5148101;27;20022;-69
2022/07/16 09:01:08;;;;;;;0.10;0.10;;;;;;;24.21;53.08;100298.72;5148427;27;20023;-65
2022/07/16 09:03:34;;;;;;;0.10;0.10;;;;;;;24.22;53.87;100305.72;5148088;27;20076;-70
2022/07/16 09:06:00;;;;;;;0.20;0.20;;;;;;;24.35;53.96;100308.38;5147323;27;20019;-71
2022/07/16 09:08:25;;;;;;;0.13;0.13;;;;;;;24.56;52.44;100297.25;5147619;27;20498;-73
2022/07/16 09:10:51;;;;;;;0.50;0.50;;;;;;;24.63;50.51;100310.94;5147334;27;20024;-71
2022/07/16 09:13:16;;;;;;;0.10;0.10;;;;;;;24.78;54.34;100310.84;5147478;27;20019;-70
2022/07/16 09:15:43;;;;;;;0.10;0.10;;;;;;;25.33;52.84;100313.16;5147148;27;20075;-71
2022/07/16 09:18:16;;;;;;;0.20;0.20;;;;;;;25.31;50.33;100318.59;5147428;27;20033;-72
2022/07/16 09:20:46;;;;;;;0.10;0.10;;;;;;;24.77;45.71;100312.63;5147456;27;20023;-72
2022/07/16 09:23:18;;;;;;;0.10;0.10;;;;;;;24.90;48.11;100325.91;5147515;27;20022;-73
2022/07/16 09:25:48;;;;;;;1.40;1.10;;;;;;;25.07;46.20;100337.13;5147144;27;20363;-74
2022/07/16 09:28:14;;;;;;;0.10;0.10;;;;;;;25.41;50.55;100332.06;5146944;27;20098;-74
2022/07/16 09:30:39;;;;;;;0.35;0.35;;;;;;;26.02;50.69;100329.47;5146582;27;20103;-73
2022/07/16 09:33:17;;;;;;;0.20;0.20;;;;;;;25.97;48.65;100330.69;5147443;27;20015;-74
2022/07/16 09:35:43;;;;;;;0.15;0.15;;;;;;;26.02;50.83;100340.97;5146880;27;20112;-74
2022/07/16 09:38:09;;;;;;;0.10;0.10;;;;;;;26.50;50.22;100352.47;5147063;27;20019;-74
2022/07/16 09:40:46;;;;;;;0.10;0.10;;;;;;;26.96;45.47;100345.38;5146998;27;20323;-75
2022/07/16 09:43:11;;;;;;;0.68;0.68;;;;;;;27.53;39.60;100349.78;5128521;27;20451;-74
2022/07/16 09:45:40;;;;;;;0.10;0.10;;;;;;;27.82;45.43;100351.91;5147015;27;20031;-73
2022/07/16 09:48:25;;;;;;;0.10;0.10;;;;;;;27.84;43.14;100357.13;5146965;27;20027;-75
2022/07/16 09:50:53;;;;;;;0.10;0.10;;;;;;;27.66;46.25;100352.28;5146597;27;20419;-73
2022/07/16 09:53:22;;;;;;;0.10;0.10;;;;;;;26.96;45.05;100357.84;5146972;27;20027;-72
2022/07/16 09:56:08;;;;;;;0.10;0.10;;;;;;;26.10;44.29;100351.03;5146739;27;20022;-73
2022/07/16 09:58:34;;;;;;;0.30;0.30;;;;;;;25.85;37.47;100336.88;5146602;27;20081;-74
2022/07/16 10:01:00;;;;;;;0.10;0.10;;;;;;;25.80;40.26;100355.00;5146638;27;20067;-73
2022/07/16 10:03:28;;;;;;;0.10;0.10;;;;;;;25.80;38.06;100355.00;5146643;27;20068;-74
2022/07/16 10:05:54;;;;;;;0.10;0.10;;;;;;;25.83;35.95;100350.28;5146431;27;20030;-72
2022/07/16 10:08:19;;;;;;;0.10;0.10;;;;;;;25.76;39.73;100362.34;5128042;27;20101;-75
2022/07/16 10:10:46;;;;;;;0.10;0.10;;;;;;;26.59;39.16;100362.41;5146026;27;20056;-73
2022/07/16 10:13:15;;;;;;;0.10;0.10;;;;;;;27.05;39.40;100350.94;5145858;27;20015;-79
2022/07/16 10:15:42;;;;;;;0.10;0.10;;;;;;;27.40;39.45;100371.25;5146313;27;20025;-74
2022/07/16 10:18:36;;;;;;;0.10;0.10;;;;;;;27.49;35.63;100368.81;5145976;27;20022;-75
2022/07/16 10:21:10;;;;;;;0.10;0.10;;;;;;;27.21;36.76;100372.75;5145932;27;20034;-74
2022/07/16 10:23:37;;;;;;;0.10;0.10;;;;;;;26.83;33.87;100379.25;5144766;27;20107;-74
2022/07/16 10:26:06;;;;;;;0.10;0.10;;;;;;;26.34;38.28;100368.78;5146083;27;20530;-74
2022/07/16 10:28:37;;;;;;;0.10;0.10;;;;;;;26.64;37.60;100395.81;5145978;27;20061;-75
2022/07/16 10:31:30;;;;;;;0.10;0.10;;;;;;;27.87;38.87;100388.88;5146186;27;20015;-75
2022/07/16 10:34:14;;;;;;;0.10;0.10;;;;;;;28.67;34.38;100396.50;5145681;27;20101;-75
2022/07/16 10:36:52;;;;;;;0.10;0.10;;;;;;;29.06;30.73;100389.66;5145558;27;20019;-76
2022/07/16 10:39:19;;;;;;;0.10;0.10;;;;;;;29.13;32.45;100390.81;5145938;27;20083;-75
2022/07/16 10:41:52;;;;;;;0.10;0.10;;;;;;;29.53;32.90;100389.09;5144718;27;20031;-75
2022/07/16 10:44:19;;;;;;;0.10;0.10;;;;;;;29.48;33.63;100388.66;5145664;27;20026;-75
2022/07/16 10:46:59;;;;;;;0.10;0.10;;;;;;;29.84;33.30;100406.06;5145332;27;20486;-76
2022/07/16 10:49:27;;;;;;;0.10;0.10;;;;;;;29.28;26.34;100409.16;5145483;27;20038;-74
2022/07/16 10:52:15;;;;;;;0.10;0.10;;;;;;;28.12;29.59;100402.81;5145767;27;20023;-76
2022/07/16 10:54:50;;;;;;;0.30;0.30;;;;;;;27.70;30.81;100401.75;5145593;27;20424;-75
2022/07/16 10:57:17;;;;;;;0.10;0.10;;;;;;;26.94;32.76;100402.38;5144234;27;20052;-75
2022/07/16 10:59:46;;;;;;;0.10;0.10;;;;;;;26.50;33.45;100411.03;5145764;27;20037;-76
2022/07/16 11:02:13;;;;;;;0.10;0.10;;;;;;;26.84;34.26;100413.75;5126983;27;20374;-76
2022/07/16 11:04:45;;;;;;;0.10;0.10;;;;;;;27.22;33.38;100406.41;5145299;27;20023;-76
2022/07/16 11:07:12;;;;;;;0.10;0.10;;;;;;;27.01;33.91;100414.28;5145419;27;20019;-75
2022/07/16 11:09:40;;;;;;;0.10;0.10;;;;;;;26.60;34.91;100404.03;5145220;27;20031;-76
2022/07/16 11:12:09;;;;;;;0.10;0.10;;;;;;;26.32;33.83;100421.25;5145241;27;20023;-75
2022/07/16 11:14:35;;;;;;;0.10;0.10;;;;;;;25.87;33.54;100422.72;5145093;27;20019;-75
2022/07/16 11:17:02;;;;;;;0.10;0.10;;;;;;;25.42;33.55;100431.22;5144985;27;20303;-75
2022/07/16 11:19:27;;;;;;;0.10;0.10;;;;;;;24.95;32.20;100435.28;5144739;27;20030;-76
2022/07/16 11:22:00;;;;;;;0.10;0.10;;;;;;;24.38;31.02;100430.22;5145189;27;20023;-75
2022/07/16 11:24:27;;;;;;;0.10;0.10;;;;;;;23.48;32.77;100444.72;5145255;27;20057;-75
2022/07/16 11:26:54;;;;;;;0.10;0.10;;;;;;;22.93;33.34;100438.34;5144612;27;20018;-74
2022/07/16 11:29:21;;;;;;;0.10;0.10;;;;;;;22.36;33.71;100440.75;5145277;27;20057;-75
2022/07/16 11:31:48;;;;;;;0.43;0.43;;;;;;;22.18;35.39;100448.78;5145043;27;20403;-75
2022/07/16 11:34:14;;;;;;;0.13;0.13;;;;;;;22.13;35.66;100445.53;5144766;27;20024;-75